createdAt,value
2022-12-13T00:02:32.109Z,98831.81
2022-12-13T00:12:33.528Z,98822.38
2022-12-13T00:22:34.921Z,98816.91
2022-12-13T00:32:36.308Z,98810.97
2022-12-13T00:42:37.701Z,98811.22
2022-12-13T00:52:39.200Z,98809.00
2022-12-13T01:02:41.760Z,98814.97
2022-12-13T01:12:43.268Z,98809.81
2022-12-13T01:22:44.643Z,98805.94
2022-12-13T01:32:46.210Z,98812.72
2022-12-13T01:42:47.612Z,98806.56
2022-12-13T01:52:49.173Z,98815.03
2022-12-13T02:02:50.662Z,98815.03
2022-12-13T02:12:52.485Z,98811.72
2022-12-13T02:23:06.288Z,98819.75
2022-12-13T02:33:21.611Z,98810.63
2022-12-13T02:43:25.979Z,98799.00
2022-12-13T02:53:35.474Z,98794.56
2022-12-13T03:03:48.557Z,98798.53
2022-12-13T03:13:56.849Z,98801.03
2022-12-13T03:23:58.250Z,98794.72
2022-12-13T03:33:59.733Z,98791.34
2022-12-13T03:44:04.308Z,98775.63
2022-12-13T03:54:05.705Z,98779.44
2022-12-13T04:04:07.086Z,98780.31
2022-12-13T04:14:08.470Z,98784.94
2022-12-13T04:24:09.835Z,98787.13
2022-12-13T04:34:11.235Z,98777.41
2022-12-13T04:44:27.589Z,98759.50
2022-12-13T04:54:35.598Z,98775.19
2022-12-13T05:04:38.268Z,98754.09
2022-12-13T05:14:39.789Z,98752.94
2022-12-13T05:24:44.714Z,98737.56
2022-12-13T05:34:46.184Z,98747.94
2022-12-13T05:44:47.632Z,98745.72
2022-12-13T05:54:49.153Z,98738.56
2022-12-13T06:04:50.621Z,98751.78
2022-12-13T06:14:52.015Z,98736.56
2022-12-13T06:24:53.479Z,98738.22
2022-12-13T06:34:55.150Z,98731.44
2022-12-13T06:44:58.395Z,98744.66
2022-12-13T06:55:00.068Z,98745.25
2022-12-13T07:05:01.527Z,98747.78
2022-12-13T07:15:02.979Z,98750.91
2022-12-13T07:25:04.953Z,98750.91
2022-12-13T07:35:06.433Z,98747.00
2022-12-13T07:45:08.121Z,98750.69
2022-12-13T07:55:12.428Z,98748.66
2022-12-13T08:05:25.877Z,98747.06
2022-12-13T08:15:28.187Z,98756.25
2022-12-13T08:25:30.100Z,98758.47
2022-12-13T08:35:34.297Z,98759.41
2022-12-13T08:45:36.481Z,98752.09
2022-12-13T08:55:37.936Z,98756.28
2022-12-13T09:05:39.463Z,98760.44
2022-12-13T09:15:45.952Z,98766.22
2022-12-13T09:25:55.757Z,98764.59
2022-12-13T09:35:57.410Z,98768.31
2022-12-13T09:46:00.986Z,98777.78
2022-12-13T09:56:10.557Z,98771.19
2022-12-13T10:06:23.207Z,98773.69
2022-12-13T10:16:37.280Z,98757.75
2022-12-13T10:26:39.445Z,98742.28
2022-12-13T10:36:43.457Z,98739.59
2022-12-13T10:46:53.663Z,98728.03
2022-12-13T10:57:00.057Z,98713.59
2022-12-13T11:07:20.726Z,98696.25
2022-12-13T11:17:23.837Z,98672.31
2022-12-13T11:27:59.140Z,98665.50
2022-12-13T11:38:22.588Z,98655.63
2022-12-13T11:48:29.899Z,98648.59
2022-12-13T11:59:05.892Z,98638.91
2022-12-13T12:09:14.611Z,98648.19
2022-12-13T12:19:17.266Z,98644.88
2022-12-13T12:29:41.112Z,98652.31
2022-12-13T12:40:05.216Z,98633.34
2022-12-13T12:50:25.805Z,98622.81
2022-12-13T13:00:28.366Z,98611.91
2022-12-13T13:10:30.371Z,98599.72
2022-12-13T13:20:31.943Z,98609.00
2022-12-13T13:30:33.584Z,98606.50
2022-12-13T13:40:38.401Z,98605.25
2022-12-13T13:50:52.076Z,98585.44
2022-12-13T14:01:11.659Z,98598.63
2022-12-13T14:11:34.958Z,98601.47
2022-12-13T14:21:58.135Z,98596.91
2022-12-13T14:31:59.645Z,98576.88
2022-12-13T14:42:02.052Z,98581.16
2022-12-13T14:52:06.070Z,98569.16
2022-12-13T15:02:18.950Z,98578.09
2022-12-13T15:12:32.859Z,98555.44
2022-12-13T15:22:34.871Z,98533.16
2022-12-13T15:32:36.543Z,98526.47
2022-12-13T15:42:38.714Z,98524.97
2022-12-13T15:52:40.502Z,98510.53
2022-12-13T16:03:14.935Z,98508.38
2022-12-13T16:13:33.424Z,98494.94
2022-12-13T16:23:35.099Z,98470.03
2022-12-13T16:33:36.775Z,98465.19
2022-12-13T16:43:40.574Z,98466.28
2022-12-13T16:53:42.038Z,98460.41
2022-12-13T17:03:43.430Z,98473.66
2022-12-13T17:13:46.864Z,98474.16
2022-12-13T17:23:48.276Z,98472.56
2022-12-13T17:33:49.754Z,98459.88
2022-12-13T17:43:51.166Z,98445.31
2022-12-13T17:53:52.646Z,98448.19
2022-12-13T18:03:55.552Z,98449.66
2022-12-13T18:13:57.108Z,98442.09
2022-12-13T18:23:59.045Z,98467.81
2022-12-13T18:34:00.476Z,98453.81
2022-12-13T18:44:02.832Z,98445.63
2022-12-13T18:54:04.249Z,98425.03
2022-12-13T19:04:05.641Z,98423.78
2022-12-13T19:14:07.031Z,98437.78
2022-12-13T19:24:10.961Z,98416.97
2022-12-13T19:34:12.545Z,98396.16
2022-12-13T19:44:14.044Z,98394.44
2022-12-13T19:54:15.664Z,98369.34
2022-12-13T20:04:17.099Z,98357.75
2022-12-13T20:14:18.562Z,98339.22
2022-12-13T20:24:20.034Z,98344.28
2022-12-13T20:34:21.681Z,98327.97
2022-12-13T20:44:23.099Z,98310.88
2022-12-13T20:54:24.674Z,98296.88
2022-12-13T21:04:27.832Z,98280.72
2022-12-13T21:14:29.897Z,98268.03
2022-12-13T21:24:31.318Z,98257.81
2022-12-13T21:34:32.894Z,98239.34
2022-12-13T21:44:34.316Z,98219.00
2022-12-13T21:54:35.693Z,98214.94
2022-12-13T22:04:52.601Z,98204.25
2022-12-13T22:14:53.984Z,98182.28
2022-12-13T22:24:55.438Z,98186.38
2022-12-13T22:34:56.943Z,98162.31
2022-12-13T22:44:58.574Z,98161.91
2022-12-13T22:55:00.524Z,98153.47
2022-12-13T23:05:02.388Z,98152.22
2022-12-13T23:15:04.717Z,98137.84
2022-12-13T23:25:06.462Z,98133.72
2022-12-13T23:35:10.224Z,98123.63
2022-12-13T23:45:11.633Z,98127.34
2022-12-13T23:55:13.057Z,98124.66
